sensor_id;sensor_type;location;lat;lon;timestamp;temperature;humidity
37984;DHT22;64625;50.882;4.376;2023-04-24T00:00:55;10.30;99.90
37984;DHT22;64625;50.882;4.376;2023-04-24T00:03:27;10.30;99.90
37984;DHT22;64625;50.882;4.376;2023-04-24T00:05:54;10.30;99.90
37984;DHT22;64625;50.882;4.376;2023-04-24T00:08:20;10.20;99.90
37984;DHT22;64625;50.882;4.376;2023-04-24T00:10:46;10.30;99.90
37984;DHT22;64625;50.882;4.376;2023-04-24T00:13:12;10.30;99.90
37984;DHT22;64625;50.882;4.376;2023-04-24T00:15:38;10.20;99.90
37984;DHT22;64625;50.882;4.376;2023-04-24T00:18:04;10.20;99.90
37984;DHT22;64625;50.882;4.376;2023-04-24T00:20:30;10.20;99.90
37984;DHT22;64625;50.882;4.376;2023-04-24T00:22:57;10.20;99.90
37984;DHT22;64625;50.882;4.376;2023-04-24T00:25:23;10.30;99.90
37984;DHT22;64625;50.882;4.376;2023-04-24T00:27:49;10.20;99.90
37984;DHT22;64625;50.882;4.376;2023-04-24T00:30:16;10.20;99.90
37984;DHT22;64625;50.882;4.376;2023-04-24T00:32:41;10.20;99.90
37984;DHT22;64625;50.882;4.376;2023-04-24T00:35:07;10.20;99.90
37984;DHT22;64625;50.882;4.376;2023-04-24T00:37:33;10.20;99.90
37984;DHT22;64625;50.882;4.376;2023-04-24T00:39:59;10.20;99.90
37984;DHT22;64625;50.882;4.376;2023-04-24T00:42:25;10.20;99.90
37984;DHT22;64625;50.882;4.376;2023-04-24T00:44:52;10.20;99.90
37984;DHT22;64625;50.882;4.376;2023-04-24T00:47:19;10.20;99.90
37984;DHT22;64625;50.882;4.376;2023-04-24T00:49:45;10.20;99.90
37984;DHT22;64625;50.882;4.376;2023-04-24T00:52:11;10.20;99.90
37984;DHT22;64625;50.882;4.376;2023-04-24T00:54:37;10.20;99.90
37984;DHT22;64625;50.882;4.376;2023-04-24T00:57:04;10.20;99.90
37984;DHT22;64625;50.882;4.376;2023-04-24T00:59:30;10.10;99.90
37984;DHT22;64625;50.882;4.376;2023-04-24T01:01:57;10.10;99.90
37984;DHT22;64625;50.882;4.376;2023-04-24T01:04:24;10.10;99.90
37984;DHT22;64625;50.882;4.376;2023-04-24T01:06:51;10.10;99.90
37984;DHT22;64625;50.882;4.376;2023-04-24T01:09:18;10.10;99.90
37984;DHT22;64625;50.882;4.376;2023-04-24T01:11:44;10.10;99.90
37984;DHT22;64625;50.882;4.376;2023-04-24T01:14:10;10.10;99.90
37984;DHT22;64625;50.882;4.376;2023-04-24T01:16:36;10.10;99.90
37984;DHT22;64625;50.882;4.376;2023-04-24T01:19:06;10.10;99.90
37984;DHT22;64625;50.882;4.376;2023-04-24T01:21:36;10.10;99.90
37984;DHT22;64625;50.882;4.376;2023-04-24T01:24:05;10.00;99.90
37984;DHT22;64625;50.882;4.376;2023-04-24T01:26:31;10.10;99.90
37984;DHT22;64625;50.882;4.376;2023-04-24T01:28:57;10.00;99.90
37984;DHT22;64625;50.882;4.376;2023-04-24T01:31:23;10.00;99.90
37984;DHT22;64625;50.882;4.376;2023-04-24T01:33:50;10.00;99.90
37984;DHT22;64625;50.882;4.376;2023-04-24T01:36:16;10.00;99.90
37984;DHT22;64625;50.882;4.376;2023-04-24T01:38:43;10.00;99.90
37984;DHT22;64625;50.882;4.376;2023-04-24T01:41:10;10.00;99.90
37984;DHT22;64625;50.882;4.376;2023-04-24T01:43:36;10.00;99.90
37984;DHT22;64625;50.882;4.376;2023-04-24T01:46:02;9.90;99.90
37984;DHT22;64625;50.882;4.376;2023-04-24T01:48:28;9.90;99.90
37984;DHT22;64625;50.882;4.376;2023-04-24T01:50:57;9.90;99.90
37984;DHT22;64625;50.882;4.376;2023-04-24T01:53:23;9.90;99.90
37984;DHT22;64625;50.882;4.376;2023-04-24T01:55:48;9.90;99.90
37984;DHT22;64625;50.882;4.376;2023-04-24T01:58:14;9.90;99.90
37984;DHT22;64625;50.882;4.376;2023-04-24T02:00:40;9.90;99.90
37984;DHT22;64625;50.882;4.376;2023-04-24T02:03:06;9.90;99.90
37984;DHT22;64625;50.882;4.376;2023-04-24T02:05:32;9.90;99.90
37984;DHT22;64625;50.882;4.376;2023-04-24T02:07:58;9.90;99.90
37984;DHT22;64625;50.882;4.376;2023-04-24T02:10:24;9.80;99.90
37984;DHT22;64625;50.882;4.376;2023-04-24T02:12:50;9.90;99.90
37984;DHT22;64625;50.882;4.376;2023-04-24T02:15:16;9.80;99.90
37984;DHT22;64625;50.882;4.376;2023-04-24T02:17:43;9.80;99.90
37984;DHT22;64625;50.882;4.376;2023-04-24T02:20:09;9.80;99.90
37984;DHT22;64625;50.882;4.376;2023-04-24T02:22:35;9.80;99.90
37984;DHT22;64625;50.882;4.376;2023-04-24T02:25:01;9.80;99.90
37984;DHT22;64625;50.882;4.376;2023-04-24T02:27:27;9.70;99.90
37984;DHT22;64625;50.882;4.376;2023-04-24T02:29:53;9.70;99.90
37984;DHT22;64625;50.882;4.376;2023-04-24T02:32:19;9.70;99.90
37984;DHT22;64625;50.882;4.376;2023-04-24T02:34:45;9.80;99.90
37984;DHT22;64625;50.882;4.376;2023-04-24T02:37:11;9.80;99.90
37984;DHT22;64625;50.882;4.376;2023-04-24T02:39:37;9.70;99.90
37984;DHT22;64625;50.882;4.376;2023-04-24T02:42:03;9.70;99.90
37984;DHT22;64625;50.882;4.376;2023-04-24T02:44:28;9.70;99.90
37984;DHT22;64625;50.882;4.376;2023-04-24T02:46:54;9.70;99.90
37984;DHT22;64625;50.882;4.376;2023-04-24T02:49:20;9.70;99.90
37984;DHT22;64625;50.882;4.376;2023-04-24T02:51:48;9.60;99.90
37984;DHT22;64625;50.882;4.376;2023-04-24T02:54:14;9.60;99.90
37984;DHT22;64625;50.882;4.376;2023-04-24T02:56:40;9.60;99.90
37984;DHT22;64625;50.882;4.376;2023-04-24T02:59:06;9.60;99.90
37984;DHT22;64625;50.882;4.376;2023-04-24T03:01:32;9.60;99.90
37984;DHT22;64625;50.882;4.376;2023-04-24T03:03:58;9.50;99.90
37984;DHT22;64625;50.882;4.376;2023-04-24T03:06:23;9.50;99.90
37984;DHT22;64625;50.882;4.376;2023-04-24T03:08:51;9.50;99.90
37984;DHT22;64625;50.882;4.376;2023-04-24T03:11:17;9.50;99.90
37984;DHT22;64625;50.882;4.376;2023-04-24T03:13:42;9.50;99.90
37984;DHT22;64625;50.882;4.376;2023-04-24T03:16:08;9.50;99.90
37984;DHT22;64625;50.882;4.376;2023-04-24T03:18:34;9.50;99.90
37984;DHT22;64625;50.882;4.376;2023-04-24T03:21:00;9.50;99.90
37984;DHT22;64625;50.882;4.376;2023-04-24T03:23:27;9.40;99.90
37984;DHT22;64625;50.882;4.376;2023-04-24T03:25:53;9.40;99.90
37984;DHT22;64625;50.882;4.376;2023-04-24T03:28:20;9.40;99.90
37984;DHT22;64625;50.882;4.376;2023-04-24T03:30:46;9.40;99.90
37984;DHT22;64625;50.882;4.376;2023-04-24T03:33:12;9.40;99.90
37984;DHT22;64625;50.882;4.376;2023-04-24T03:35:37;9.40;99.90
37984;DHT22;64625;50.882;4.376;2023-04-24T03:38:03;9.30;99.90
37984;DHT22;64625;50.882;4.376;2023-04-24T03:40:32;9.30;99.90
37984;DHT22;64625;50.882;4.376;2023-04-24T03:42:59;9.30;99.90
37984;DHT22;64625;50.882;4.376;2023-04-24T03:45:24;9.30;99.90
37984;DHT22;64625;50.882;4.376;2023-04-24T03:47:50;9.30;99.90
37984;DHT22;64625;50.882;4.376;2023-04-24T03:50:16;9.30;99.90
37984;DHT22;64625;50.882;4.376;2023-04-24T03:52:42;9.30;99.90
37984;DHT22;64625;50.882;4.376;2023-04-24T03:55:08;9.30;99.90
37984;DHT22;64625;50.882;4.376;2023-04-24T03:57:34;9.30;99.90
37984;DHT22;64625;50.882;4.376;2023-04-24T03:59:59;9.30;99.90
37984;DHT22;64625;50.882;4.376;2023-04-24T04:02:25;9.30;99.90
37984;DHT22;64625;50.882;4.376;2023-04-24T04:04:51;9.30;99.90
37984;DHT22;64625;50.882;4.376;2023-04-24T04:07:17;9.30;99.90
37984;DHT22;64625;50.882;4.376;2023-04-24T04:09:43;9.30;99.90
37984;DHT22;64625;50.882;4.376;2023-04-24T04:12:08;9.30;99.90
37984;DHT22;64625;50.882;4.376;2023-04-24T04:14:34;9.30;99.90
37984;DHT22;64625;50.882;4.376;2023-04-24T04:17:00;9.40;99.90
37984;DHT22;64625;50.882;4.376;2023-04-24T04:19:26;9.30;99.90
37984;DHT22;64625;50.882;4.376;2023-04-24T04:21:52;9.40;99.90
37984;DHT22;64625;50.882;4.376;2023-04-24T04:24:19;9.40;99.90
37984;DHT22;64625;50.882;4.376;2023-04-24T04:26:49;9.40;99.90
37984;DHT22;64625;50.882;4.376;2023-04-24T04:29:17;9.40;99.90
37984;DHT22;64625;50.882;4.376;2023-04-24T04:31:44;9.40;99.90
37984;DHT22;64625;50.882;4.376;2023-04-24T04:34:10;9.40;99.90
37984;DHT22;64625;50.882;4.376;2023-04-24T04:36:37;9.40;99.90
37984;DHT22;64625;50.882;4.376;2023-04-24T04:39:06;9.40;99.90
37984;DHT22;64625;50.882;4.376;2023-04-24T04:41:32;9.40;99.90
37984;DHT22;64625;50.882;4.376;2023-04-24T04:44:01;9.40;99.90
37984;DHT22;64625;50.882;4.376;2023-04-24T04:46:32;9.40;99.90
37984;DHT22;64625;50.882;4.376;2023-04-24T04:49:02;9.30;99.90
37984;DHT22;64625;50.882;4.376;2023-04-24T04:51:28;9.30;99.90
37984;DHT22;64625;50.882;4.376;2023-04-24T04:53:54;9.30;99.90
37984;DHT22;64625;50.882;4.376;2023-04-24T04:56:20;9.30;99.90
37984;DHT22;64625;50.882;4.376;2023-04-24T04:58:46;9.30;99.90
37984;DHT22;64625;50.882;4.376;2023-04-24T05:01:12;9.20;99.90
37984;DHT22;64625;50.882;4.376;2023-04-24T05:03:37;9.20;99.90
37984;DHT22;64625;50.882;4.376;2023-04-24T05:06:04;9.20;99.90
37984;DHT22;64625;50.882;4.376;2023-04-24T05:08:30;9.20;99.90
37984;DHT22;64625;50.882;4.376;2023-04-24T05:10:56;9.20;99.90
37984;DHT22;64625;50.882;4.376;2023-04-24T05:13:22;9.20;99.90
37984;DHT22;64625;50.882;4.376;2023-04-24T05:15:47;9.20;99.90
37984;DHT22;64625;50.882;4.376;2023-04-24T05:18:13;9.20;99.90
37984;DHT22;64625;50.882;4.376;2023-04-24T05:20:39;9.20;99.90
37984;DHT22;64625;50.882;4.376;2023-04-24T05:23:05;9.20;99.90
37984;DHT22;64625;50.882;4.376;2023-04-24T05:25:31;9.20;99.90
37984;DHT22;64625;50.882;4.376;2023-04-24T05:28:01;9.20;99.90
37984;DHT22;64625;50.882;4.376;2023-04-24T05:30:29;9.20;99.90
37984;DHT22;64625;50.882;4.376;2023-04-24T05:32:54;9.20;99.90
37984;DHT22;64625;50.882;4.376;2023-04-24T05:35:20;9.20;99.90
37984;DHT22;64625;50.882;4.376;2023-04-24T05:37:46;9.10;99.90
37984;DHT22;64625;50.882;4.376;2023-04-24T05:40:12;9.10;99.90
37984;DHT22;64625;50.882;4.376;2023-04-24T05:42:38;9.10;99.90
37984;DHT22;64625;50.882;4.376;2023-04-24T05:45:05;9.10;99.90
37984;DHT22;64625;50.882;4.376;2023-04-24T05:47:31;9.10;99.90
37984;DHT22;64625;50.882;4.376;2023-04-24T05:49:56;9.10;99.90
37984;DHT22;64625;50.882;4.376;2023-04-24T05:52:22;9.10;99.90
37984;DHT22;64625;50.882;4.376;2023-04-24T05:54:48;9.10;99.90
37984;DHT22;64625;50.882;4.376;2023-04-24T05:57:14;9.10;99.90
37984;DHT22;64625;50.882;4.376;2023-04-24T05:59:40;9.10;99.90
37984;DHT22;64625;50.882;4.376;2023-04-24T06:02:07;9.10;99.90
37984;DHT22;64625;50.882;4.376;2023-04-24T06:04:33;9.10;99.90
37984;DHT22;64625;50.882;4.376;2023-04-24T06:06:59;9.10;99.90
37984;DHT22;64625;50.882;4.376;2023-04-24T06:09:28;9.10;99.90
37984;DHT22;64625;50.882;4.376;2023-04-24T06:11:54;9.10;99.90
37984;DHT22;64625;50.882;4.376;2023-04-24T06:14:20;9.10;99.90
37984;DHT22;64625;50.882;4.376;2023-04-24T06:16:46;9.10;99.90
37984;DHT22;64625;50.882;4.376;2023-04-24T06:19:12;9.10;99.90
37984;DHT22;64625;50.882;4.376;2023-04-24T06:21:38;9.10;99.90
37984;DHT22;64625;50.882;4.376;2023-04-24T06:24:04;9.00;99.90
37984;DHT22;64625;50.882;4.376;2023-04-24T06:26:30;9.00;99.90
37984;DHT22;64625;50.882;4.376;2023-04-24T06:28:57;9.00;99.90
37984;DHT22;64625;50.882;4.376;2023-04-24T06:31:24;9.00;99.90
37984;DHT22;64625;50.882;4.376;2023-04-24T06:33:50;9.00;99.90
37984;DHT22;64625;50.882;4.376;2023-04-24T06:36:17;9.00;99.90
37984;DHT22;64625;50.882;4.376;2023-04-24T06:38:44;9.10;99.90
37984;DHT22;64625;50.882;4.376;2023-04-24T06:41:10;9.00;99.90
37984;DHT22;64625;50.882;4.376;2023-04-24T06:43:36;9.00;99.90
37984;DHT22;64625;50.882;4.376;2023-04-24T06:46:03;9.10;99.90
37984;DHT22;64625;50.882;4.376;2023-04-24T06:48:30;9.10;99.90
37984;DHT22;64625;50.882;4.376;2023-04-24T06:50:56;9.10;99.90
37984;DHT22;64625;50.882;4.376;2023-04-24T06:53:22;9.10;99.90
37984;DHT22;64625;50.882;4.376;2023-04-24T06:55:48;9.10;99.90
37984;DHT22;64625;50.882;4.376;2023-04-24T06:58:14;9.10;99.90
37984;DHT22;64625;50.882;4.376;2023-04-24T07:00:40;9.10;99.90
37984;DHT22;64625;50.882;4.376;2023-04-24T07:03:06;9.20;99.90
37984;DHT22;64625;50.882;4.376;2023-04-24T07:05:32;9.20;99.90
37984;DHT22;64625;50.882;4.376;2023-04-24T07:08:01;9.20;99.90
37984;DHT22;64625;50.882;4.376;2023-04-24T07:10:27;9.20;99.90
37984;DHT22;64625;50.882;4.376;2023-04-24T07:12:55;9.20;99.90
37984;DHT22;64625;50.882;4.376;2023-04-24T07:15:22;9.30;99.90
37984;DHT22;64625;50.882;4.376;2023-04-24T07:17:49;9.30;99.90
37984;DHT22;64625;50.882;4.376;2023-04-24T07:20:15;9.30;99.90
37984;DHT22;64625;50.882;4.376;2023-04-24T07:22:41;9.30;99.90
37984;DHT22;64625;50.882;4.376;2023-04-24T07:25:10;9.30;99.90
37984;DHT22;64625;50.882;4.376;2023-04-24T07:27:36;9.40;99.90
37984;DHT22;64625;50.882;4.376;2023-04-24T07:30:03;9.40;99.90
37984;DHT22;64625;50.882;4.376;2023-04-24T07:32:29;9.40;99.90
37984;DHT22;64625;50.882;4.376;2023-04-24T07:34:55;9.40;99.90
37984;DHT22;64625;50.882;4.376;2023-04-24T07:37:22;9.50;99.90
37984;DHT22;64625;50.882;4.376;2023-04-24T07:39:51;9.50;99.90
37984;DHT22;64625;50.882;4.376;2023-04-24T07:42:17;9.50;99.90
37984;DHT22;64625;50.882;4.376;2023-04-24T07:44:44;9.50;99.90
37984;DHT22;64625;50.882;4.376;2023-04-24T07:47:12;9.60;99.90
37984;DHT22;64625;50.882;4.376;2023-04-24T07:49:38;9.60;99.90
37984;DHT22;64625;50.882;4.376;2023-04-24T07:52:05;9.60;99.90
37984;DHT22;64625;50.882;4.376;2023-04-24T07:54:30;9.60;99.90
37984;DHT22;64625;50.882;4.376;2023-04-24T07:56:56;9.70;99.90
37984;DHT22;64625;50.882;4.376;2023-04-24T07:59:22;9.70;99.90
37984;DHT22;64625;50.882;4.376;2023-04-24T08:01:48;9.80;99.90
37984;DHT22;64625;50.882;4.376;2023-04-24T08:04:14;9.90;99.90
37984;DHT22;64625;50.882;4.376;2023-04-24T08:06:40;9.90;99.90
37984;DHT22;64625;50.882;4.376;2023-04-24T08:09:06;10.00;99.90
37984;DHT22;64625;50.882;4.376;2023-04-24T08:11:32;10.10;99.90
37984;DHT22;64625;50.882;4.376;2023-04-24T08:13:58;10.10;99.90
37984;DHT22;64625;50.882;4.376;2023-04-24T08:16:24;10.10;99.90
37984;DHT22;64625;50.882;4.376;2023-04-24T08:18:50;10.20;99.90
37984;DHT22;64625;50.882;4.376;2023-04-24T08:21:16;10.20;99.90
37984;DHT22;64625;50.882;4.376;2023-04-24T08:23:45;10.20;99.90
37984;DHT22;64625;50.882;4.376;2023-04-24T08:26:12;10.30;99.90
37984;DHT22;64625;50.882;4.376;2023-04-24T08:28:38;10.30;99.90
37984;DHT22;64625;50.882;4.376;2023-04-24T08:31:04;10.30;99.90
37984;DHT22;64625;50.882;4.376;2023-04-24T08:33:31;10.40;99.90
37984;DHT22;64625;50.882;4.376;2023-04-24T08:36:03;10.40;99.90
37984;DHT22;64625;50.882;4.376;2023-04-24T08:38:30;10.40;99.90
37984;DHT22;64625;50.882;4.376;2023-04-24T08:41:01;10.40;99.90
37984;DHT22;64625;50.882;4.376;2023-04-24T08:43:27;10.50;99.90
37984;DHT22;64625;50.882;4.376;2023-04-24T08:45:55;10.50;99.90
37984;DHT22;64625;50.882;4.376;2023-04-24T08:48:22;10.60;99.90
37984;DHT22;64625;50.882;4.376;2023-04-24T08:50:50;10.60;99.90
37984;DHT22;64625;50.882;4.376;2023-04-24T08:53:17;10.60;99.90
37984;DHT22;64625;50.882;4.376;2023-04-24T08:55:47;10.60;99.90
37984;DHT22;64625;50.882;4.376;2023-04-24T08:58:16;10.70;99.90
37984;DHT22;64625;50.882;4.376;2023-04-24T09:00:42;10.70;99.90
37984;DHT22;64625;50.882;4.376;2023-04-24T09:03:16;10.70;99.90
37984;DHT22;64625;50.882;4.376;2023-04-24T09:05:47;10.70;99.90
37984;DHT22;64625;50.882;4.376;2023-04-24T09:08:14;10.70;99.90
37984;DHT22;64625;50.882;4.376;2023-04-24T09:10:40;10.80;99.90
37984;DHT22;64625;50.882;4.376;2023-04-24T09:13:06;10.80;99.90
37984;DHT22;64625;50.882;4.376;2023-04-24T09:15:35;10.90;99.90
37984;DHT22;64625;50.882;4.376;2023-04-24T09:18:01;11.00;99.90
37984;DHT22;64625;50.882;4.376;2023-04-24T09:20:27;11.10;99.90
